createdAt,value
2018-08-06T00:00:50.242Z,1.30
2018-08-06T00:03:18.571Z,1.00
2018-08-06T00:05:46.986Z,1.30
2018-08-06T00:08:15.345Z,1.10
2018-08-06T00:10:43.672Z,1.20
2018-08-06T00:13:12.105Z,1.10
2018-08-06T00:15:40.508Z,1.10
2018-08-06T00:18:08.855Z,1.10
2018-08-06T00:20:37.204Z,1.37
2018-08-06T00:23:05.564Z,1.20
2018-08-06T00:25:33.873Z,1.17
2018-08-06T00:28:02.247Z,1.20
2018-08-06T00:30:30.595Z,1.00
2018-08-06T00:32:59.067Z,1.30
2018-08-06T00:35:27.832Z,1.20
2018-08-06T00:37:56.224Z,1.20
2018-08-06T00:40:24.568Z,1.02
2018-08-06T00:42:52.958Z,1.10
2018-08-06T00:45:22.010Z,1.30
2018-08-06T00:47:50.856Z,1.60
2018-08-06T00:50:19.166Z,1.40
2018-08-06T00:52:47.493Z,1.40
2018-08-06T00:55:17.675Z,1.30
2018-08-06T00:57:46.032Z,1.32
2018-08-06T01:00:18.834Z,1.60
2018-08-06T01:02:47.207Z,1.30
2018-08-06T01:05:16.049Z,1.40
2018-08-06T01:07:44.903Z,1.40
2018-08-06T01:10:14.663Z,1.20
2018-08-06T01:12:43.081Z,1.20
2018-08-06T01:15:13.470Z,1.37
2018-08-06T01:17:41.965Z,1.00
2018-08-06T01:20:12.014Z,1.25
2018-08-06T01:22:40.967Z,1.20
2018-08-06T01:25:09.366Z,1.12
2018-08-06T01:27:38.013Z,1.20
2018-08-06T01:30:07.769Z,1.30
2018-08-06T01:32:36.526Z,1.15
2018-08-06T01:35:05.473Z,1.40
2018-08-06T01:37:33.999Z,1.40
2018-08-06T01:40:02.343Z,1.50
2018-08-06T01:42:30.728Z,1.40
2018-08-06T01:44:59.119Z,1.43
2018-08-06T01:47:27.461Z,1.37
2018-08-06T01:49:55.769Z,1.40
2018-08-06T01:52:24.173Z,1.47
2018-08-06T01:54:52.494Z,1.40
2018-08-06T01:57:20.954Z,1.40
2018-08-06T01:59:49.271Z,1.52
2018-08-06T02:02:17.621Z,1.20
2018-08-06T02:04:45.934Z,1.40
2018-08-06T02:07:14.281Z,1.40
2018-08-06T02:09:42.584Z,1.50
2018-08-06T02:12:11.026Z,1.60
2018-08-06T02:14:39.378Z,1.50
2018-08-06T02:17:07.789Z,1.50
2018-08-06T02:19:36.110Z,1.72
2018-08-06T02:22:04.500Z,1.80
2018-08-06T02:24:32.876Z,1.40
2018-08-06T02:27:01.216Z,1.30
2018-08-06T02:29:29.695Z,1.50
2018-08-06T02:31:58.157Z,1.40
2018-08-06T02:34:26.477Z,1.75
2018-08-06T02:36:54.863Z,1.45
2018-08-06T02:39:23.216Z,1.98
2018-08-06T02:41:51.578Z,1.90
2018-08-06T02:44:19.995Z,1.52
2018-08-06T02:46:48.321Z,1.90
2018-08-06T02:49:16.696Z,1.90
2018-08-06T02:51:45.103Z,2.10
2018-08-06T02:54:13.427Z,1.93
2018-08-06T02:56:41.817Z,2.03
2018-08-06T02:59:10.226Z,2.00
2018-08-06T03:01:38.559Z,1.77
2018-08-06T03:04:06.958Z,1.87
2018-08-06T03:06:35.279Z,2.08
2018-08-06T03:09:04.125Z,2.00
2018-08-06T03:11:32.459Z,2.15
2018-08-06T03:14:00.819Z,1.80
2018-08-06T03:16:29.153Z,1.80
2018-08-06T03:18:57.527Z,2.50
2018-08-06T03:21:25.930Z,2.10
2018-08-06T03:23:54.292Z,1.90
2018-08-06T03:26:22.616Z,2.10
2018-08-06T03:28:51.044Z,2.20
2018-08-06T03:31:19.386Z,2.20
2018-08-06T03:33:47.712Z,2.20
2018-08-06T03:36:16.077Z,2.33
2018-08-06T03:38:44.383Z,2.30
2018-08-06T03:41:12.835Z,2.25
2018-08-06T03:43:41.143Z,2.30
2018-08-06T03:46:09.466Z,2.53
2018-08-06T03:48:37.800Z,2.40
2018-08-06T03:51:06.136Z,2.60
2018-08-06T03:53:34.469Z,2.50
2018-08-06T03:56:02.873Z,2.50
2018-08-06T03:58:31.232Z,2.37
2018-08-06T04:00:59.617Z,2.60
2018-08-06T04:03:27.956Z,3.30
2018-08-06T04:05:56.335Z,5.75
2018-08-06T04:08:24.810Z,2.50
2018-08-06T04:10:53.214Z,3.50
2018-08-06T04:13:21.596Z,3.27
2018-08-06T04:15:49.943Z,3.70
2018-08-06T04:18:18.363Z,2.70
2018-08-06T04:20:46.763Z,2.95
2018-08-06T04:23:15.144Z,3.00
2018-08-06T04:25:43.493Z,2.83
2018-08-06T04:28:11.835Z,3.10
2018-08-06T04:30:40.236Z,2.80
2018-08-06T04:33:08.713Z,2.80
2018-08-06T04:35:36.959Z,2.83
2018-08-06T04:38:05.495Z,2.90
2018-08-06T04:40:33.817Z,2.70
2018-08-06T04:43:02.116Z,2.90
2018-08-06T04:45:30.451Z,2.83
2018-08-06T04:47:58.860Z,3.07
2018-08-06T04:50:27.199Z,2.92
2018-08-06T04:52:55.540Z,3.10
2018-08-06T04:55:23.864Z,2.90
2018-08-06T04:57:52.792Z,3.00
2018-08-06T05:00:21.084Z,2.90
2018-08-06T05:02:49.462Z,3.02
2018-08-06T05:05:17.853Z,3.00
2018-08-06T05:07:46.213Z,3.05
2018-08-06T05:10:14.533Z,3.22
2018-08-06T05:12:42.941Z,3.27
2018-08-06T05:15:11.331Z,3.50
2018-08-06T05:17:39.665Z,2.98
2018-08-06T05:20:08.028Z,3.20
2018-08-06T05:22:36.386Z,4.00
2018-08-06T05:25:05.186Z,3.60
2018-08-06T05:27:33.516Z,3.60
2018-08-06T05:30:01.880Z,3.30
2018-08-06T05:32:30.239Z,2.87
2018-08-06T05:34:58.577Z,2.90
2018-08-06T05:37:27.004Z,2.90
2018-08-06T05:39:55.364Z,2.80
2018-08-06T05:42:23.703Z,3.00
2018-08-06T05:44:52.095Z,2.77
2018-08-06T05:47:20.411Z,2.80
2018-08-06T05:49:48.748Z,2.90
2018-08-06T05:52:17.111Z,3.40
2018-08-06T05:54:45.575Z,3.10
2018-08-06T05:57:13.950Z,3.67
2018-08-06T05:59:42.306Z,2.92
2018-08-06T06:02:10.639Z,3.50
2018-08-06T06:04:38.995Z,3.00
2018-08-06T06:07:07.773Z,4.47
2018-08-06T06:09:36.117Z,4.20
2018-08-06T06:12:04.511Z,4.22
2018-08-06T06:14:32.860Z,4.40
2018-08-06T06:17:01.209Z,3.40
2018-08-06T06:19:29.537Z,3.20
2018-08-06T06:21:57.913Z,4.10
2018-08-06T06:24:26.284Z,3.42
2018-08-06T06:26:54.642Z,2.80
2018-08-06T06:29:23.022Z,3.30
2018-08-06T06:31:51.348Z,3.00
2018-08-06T06:34:19.735Z,3.20
2018-08-06T06:36:48.079Z,4.72
2018-08-06T06:39:16.453Z,3.02
2018-08-06T06:41:44.882Z,2.77
2018-08-06T06:44:13.236Z,3.30
2018-08-06T06:46:41.613Z,2.80
2018-08-06T06:49:10.378Z,3.08
2018-08-06T06:51:38.705Z,3.00
2018-08-06T06:54:07.626Z,2.70
2018-08-06T06:56:36.037Z,2.70
2018-08-06T06:59:04.517Z,2.50
2018-08-06T07:01:33.010Z,2.52
2018-08-06T07:04:01.359Z,2.58
2018-08-06T07:06:29.844Z,2.00
2018-08-06T07:08:58.185Z,2.17
2018-08-06T07:11:26.596Z,2.10
2018-08-06T07:13:55.043Z,1.80
2018-08-06T07:16:23.356Z,3.47
2018-08-06T07:18:51.836Z,2.35
2018-08-06T07:21:20.215Z,3.00
2018-08-06T07:23:48.622Z,3.33
2018-08-06T07:26:16.982Z,3.27
2018-08-06T07:28:45.367Z,4.25
2018-08-06T07:31:13.699Z,2.40
2018-08-06T07:33:42.096Z,4.30
2018-08-06T07:36:10.422Z,2.83
2018-08-06T07:38:38.797Z,2.85
2018-08-06T07:41:07.157Z,2.10
2018-08-06T07:43:35.556Z,1.90
2018-08-06T07:46:03.879Z,1.80
2018-08-06T07:48:32.532Z,1.60
2018-08-06T07:51:00.862Z,2.30
2018-08-06T07:53:29.205Z,2.10
2018-08-06T07:55:57.516Z,1.80
2018-08-06T07:58:25.906Z,1.77
2018-08-06T08:00:54.239Z,1.80
2018-08-06T08:03:22.648Z,2.17
2018-08-06T08:05:51.031Z,1.70
2018-08-06T08:08:19.456Z,2.22
2018-08-06T08:10:47.842Z,1.70
2018-08-06T08:13:16.242Z,1.55
2018-08-06T08:15:44.648Z,2.00
2018-08-06T08:18:13.121Z,1.90
2018-08-06T08:20:41.535Z,2.00
2018-08-06T08:23:09.871Z,2.40
2018-08-06T08:25:38.253Z,1.90
2018-08-06T08:28:06.569Z,1.70
2018-08-06T08:30:34.957Z,1.60
2018-08-06T08:33:03.265Z,2.10
2018-08-06T08:35:32.652Z,1.73
2018-08-06T08:38:01.352Z,1.65
2018-08-06T08:40:29.878Z,6.20
2018-08-06T08:42:58.219Z,4.17
2018-08-06T08:45:26.792Z,1.70
2018-08-06T08:47:55.187Z,1.60
2018-08-06T08:50:23.572Z,1.70
2018-08-06T08:52:51.947Z,1.60
2018-08-06T08:55:20.990Z,1.70
2018-08-06T08:57:49.359Z,1.80
2018-08-06T09:00:19.493Z,1.67
2018-08-06T09:02:48.904Z,1.70
2018-08-06T09:05:18.077Z,1.50
2018-08-06T09:07:46.818Z,1.80
2018-08-06T09:10:16.506Z,1.60
2018-08-06T09:12:45.105Z,1.90
2018-08-06T09:15:24.637Z,1.75
2018-08-06T09:17:53.117Z,1.70
2018-08-06T09:20:21.801Z,1.70
2018-08-06T09:22:50.144Z,1.60
2018-08-06T09:25:18.577Z,1.75
2018-08-06T09:27:48.249Z,1.80
2018-08-06T09:30:19.005Z,2.00
2018-08-06T09:32:48.812Z,1.70
2018-08-06T09:35:18.020Z,1.62
2018-08-06T09:37:46.364Z,1.90
2018-08-06T09:40:16.049Z,1.70
2018-08-06T09:42:45.185Z,1.50
2018-08-06T09:45:14.825Z,1.35
2018-08-06T09:47:44.403Z,1.50
2018-08-06T09:50:13.595Z,1.70
2018-08-06T09:52:42.805Z,2.00
2018-08-06T09:55:14.656Z,1.70
2018-08-06T09:57:43.416Z,1.50
2018-08-06T10:00:19.351Z,1.42
2018-08-06T10:02:48.596Z,1.60
2018-08-06T10:05:17.078Z,1.77
2018-08-06T10:07:45.988Z,1.80
2018-08-06T10:10:14.739Z,1.90
2018-08-06T10:12:43.847Z,2.40
2018-08-06T10:15:12.757Z,2.20
2018-08-06T10:17:41.610Z,2.05
2018-08-06T10:20:14.487Z,2.27
2018-08-06T10:22:42.857Z,1.60
2018-08-06T10:25:12.418Z,1.57
2018-08-06T10:27:41.582Z,1.70
2018-08-06T10:30:18.890Z,2.00
2018-08-06T10:32:47.343Z,1.75
2018-08-06T10:35:16.879Z,1.70
2018-08-06T10:37:45.463Z,2.50
2018-08-06T10:40:16.792Z,1.62
2018-08-06T10:42:45.689Z,1.70
2018-08-06T10:45:15.433Z,1.60
2018-08-06T10:47:43.969Z,1.80
2018-08-06T10:50:12.460Z,1.80
2018-08-06T10:52:40.958Z,1.70
2018-08-06T10:55:10.125Z,2.08
2018-08-06T10:57:39.270Z,1.70
2018-08-06T11:00:10.072Z,1.70
2018-08-06T11:02:38.448Z,2.10
2018-08-06T11:05:08.641Z,1.90
2018-08-06T11:07:37.178Z,1.85
2018-08-06T11:10:08.177Z,2.10
2018-08-06T11:12:37.153Z,1.92
2018-08-06T11:15:07.627Z,1.55
2018-08-06T11:17:36.251Z,2.30
2018-08-06T11:20:05.123Z,1.90
2018-08-06T11:22:33.469Z,1.80
2018-08-06T11:25:01.943Z,1.67
2018-08-06T11:27:30.568Z,2.33
2018-08-06T11:29:59.216Z,2.10
2018-08-06T11:32:27.797Z,1.98
2018-08-06T11:34:56.304Z,2.10
2018-08-06T11:37:25.235Z,1.75
2018-08-06T11:39:53.933Z,1.80
2018-08-06T11:42:22.292Z,2.00
2018-08-06T11:44:50.624Z,1.70
2018-08-06T11:47:19.001Z,1.92
2018-08-06T11:49:54.117Z,1.60
2018-08-06T11:52:22.491Z,2.08
2018-08-06T11:54:51.144Z,1.80
2018-08-06T11:57:19.577Z,1.90
2018-08-06T11:59:48.076Z,2.00
2018-08-06T12:02:16.392Z,1.83
2018-08-06T12:04:44.767Z,2.10
2018-08-06T12:07:13.122Z,2.00
2018-08-06T12:09:41.432Z,2.10
2018-08-06T12:12:09.776Z,1.60
2018-08-06T12:14:38.122Z,1.80
2018-08-06T12:17:06.480Z,2.40
2018-08-06T12:19:34.847Z,1.82
2018-08-06T12:22:03.207Z,2.00
2018-08-06T12:24:31.534Z,1.82
2018-08-06T12:26:59.884Z,1.70
2018-08-06T12:29:28.383Z,1.90
2018-08-06T12:31:57.483Z,1.70
2018-08-06T12:34:25.960Z,1.95
2018-08-06T12:36:54.327Z,1.60
2018-08-06T12:39:22.843Z,1.73
2018-08-06T12:41:51.189Z,2.20
2018-08-06T12:44:19.575Z,2.10
2018-08-06T12:46:47.938Z,2.10
2018-08-06T12:49:16.308Z,2.20
2018-08-06T12:51:44.820Z,2.00
2018-08-06T12:54:13.205Z,1.80
2018-08-06T12:56:41.571Z,1.80
2018-08-06T12:59:09.930Z,1.90
2018-08-06T13:01:38.328Z,2.00
2018-08-06T13:04:06.747Z,1.85
2018-08-06T13:06:35.118Z,1.85
2018-08-06T13:09:03.764Z,1.90
2018-08-06T13:11:32.084Z,1.80
2018-08-06T13:14:00.406Z,2.10
2018-08-06T13:16:28.759Z,2.10
2018-08-06T13:18:57.089Z,1.95
2018-08-06T13:21:25.409Z,1.70
2018-08-06T13:23:53.703Z,2.10
2018-08-06T13:26:22.041Z,1.90
2018-08-06T13:28:50.570Z,1.80
2018-08-06T13:31:19.016Z,2.02
2018-08-06T13:33:47.354Z,2.10
2018-08-06T13:36:15.718Z,1.70
2018-08-06T13:38:44.127Z,1.80
2018-08-06T13:41:12.487Z,1.90
2018-08-06T13:43:40.846Z,1.60
2018-08-06T13:46:09.234Z,1.90
2018-08-06T13:48:37.640Z,1.90
2018-08-06T13:51:06.040Z,1.70
2018-08-06T13:53:34.435Z,1.92
2018-08-06T13:56:03.342Z,1.90
2018-08-06T13:58:31.711Z,2.25
2018-08-06T14:01:00.092Z,1.70
2018-08-06T14:03:28.514Z,1.95
2018-08-06T14:05:56.823Z,1.80
2018-08-06T14:08:25.183Z,2.30
2018-08-06T14:10:53.556Z,1.80
2018-08-06T14:13:21.959Z,1.77
2018-08-06T14:15:50.321Z,1.70
2018-08-06T14:18:20.435Z,1.70
2018-08-06T14:20:48.824Z,2.20
2018-08-06T14:23:17.190Z,2.20
2018-08-06T14:25:45.495Z,1.80
2018-08-06T14:28:14.193Z,1.80
2018-08-06T14:30:49.170Z,1.70
2018-08-06T14:33:17.563Z,1.80
2018-08-06T14:35:45.900Z,1.70
2018-08-06T14:38:14.341Z,1.92
2018-08-06T14:40:43.081Z,1.80
2018-08-06T14:43:11.479Z,1.87
2018-08-06T14:45:39.871Z,1.60
2018-08-06T14:48:08.243Z,1.80
2018-08-06T14:50:36.613Z,1.67
2018-08-06T14:53:04.932Z,2.20
2018-08-06T14:55:33.312Z,1.80
2018-08-06T14:58:01.649Z,1.80
2018-08-06T15:00:30.032Z,1.72
2018-08-06T15:02:58.474Z,1.70
2018-08-06T15:05:26.986Z,2.00
2018-08-06T15:07:55.384Z,1.60
2018-08-06T15:10:23.677Z,1.70
2018-08-06T15:12:52.025Z,1.80
2018-08-06T15:15:20.971Z,1.80
2018-08-06T15:17:49.437Z,1.80
2018-08-06T15:20:19.543Z,1.70
2018-08-06T15:22:48.199Z,1.90
2018-08-06T15:25:22.350Z,1.80
2018-08-06T15:27:51.535Z,2.08
2018-08-06T15:30:20.021Z,1.80
2018-08-06T15:32:48.457Z,1.70
2018-08-06T15:35:16.810Z,2.00
2018-08-06T15:37:46.230Z,1.80
2018-08-06T15:40:18.400Z,1.60
2018-08-06T15:42:46.836Z,1.75
2018-08-06T15:45:15.444Z,1.60
2018-08-06T15:47:44.714Z,2.60
2018-08-06T15:50:18.298Z,3.60
2018-08-06T15:52:46.647Z,1.70
2018-08-06T15:55:15.260Z,1.90
2018-08-06T15:57:43.852Z,1.80
2018-08-06T16:00:14.578Z,2.00
2018-08-06T16:02:43.187Z,1.80
2018-08-06T16:05:18.141Z,1.70
2018-08-06T16:07:46.895Z,1.70
2018-08-06T16:10:15.646Z,1.80
2018-08-06T16:12:44.151Z,1.90
2018-08-06T16:15:13.759Z,1.70
2018-08-06T16:17:42.870Z,1.50
2018-08-06T16:20:14.272Z,2.10
2018-08-06T16:22:42.693Z,3.12
2018-08-06T16:25:12.005Z,2.00
2018-08-06T16:27:40.507Z,2.00
2018-08-06T16:30:13.244Z,1.80
2018-08-06T16:32:41.602Z,4.10
2018-08-06T16:35:09.917Z,3.40
2018-08-06T16:37:38.328Z,1.72
2018-08-06T16:40:07.866Z,1.62
2018-08-06T16:42:36.349Z,1.90
2018-08-06T16:45:05.338Z,1.70
2018-08-06T16:47:34.708Z,1.72
2018-08-06T16:50:03.157Z,2.17
2018-08-06T16:52:31.910Z,1.80
2018-08-06T16:55:00.629Z,1.70
2018-08-06T16:57:29.107Z,1.82
2018-08-06T16:59:57.468Z,1.90
2018-08-06T17:02:25.879Z,2.12
2018-08-06T17:04:54.273Z,1.60
2018-08-06T17:07:25.025Z,1.80
2018-08-06T17:09:53.754Z,1.80
2018-08-06T17:12:22.168Z,2.00
2018-08-06T17:14:53.320Z,3.00
2018-08-06T17:17:21.703Z,2.33
2018-08-06T17:19:50.056Z,2.33
2018-08-06T17:22:18.436Z,2.02
2018-08-06T17:24:46.754Z,1.97
2018-08-06T17:27:15.083Z,3.37
2018-08-06T17:29:43.449Z,2.20
2018-08-06T17:32:11.797Z,2.00
2018-08-06T17:34:40.148Z,1.80
2018-08-06T17:37:08.510Z,1.60
2018-08-06T17:39:36.886Z,1.90
2018-08-06T17:42:05.391Z,1.98
2018-08-06T17:44:33.733Z,1.90
2018-08-06T17:47:02.177Z,2.00
2018-08-06T17:49:30.528Z,2.70
2018-08-06T17:51:58.888Z,2.70
2018-08-06T17:54:28.328Z,13.60
2018-08-06T17:56:56.679Z,22.35
2018-08-06T17:59:25.027Z,3.10
2018-08-06T18:01:53.435Z,20.97
2018-08-06T18:04:21.808Z,3.60
2018-08-06T18:06:50.149Z,2.00
2018-08-06T18:09:18.493Z,9.80
2018-08-06T18:11:46.899Z,2.30
2018-08-06T18:14:15.318Z,4.80
2018-08-06T18:16:43.733Z,2.27
2018-08-06T18:19:12.164Z,2.20
2018-08-06T18:21:40.507Z,2.10
2018-08-06T18:24:08.915Z,2.60
2018-08-06T18:26:37.297Z,3.20
2018-08-06T18:29:05.846Z,2.45
2018-08-06T18:31:34.202Z,4.72
2018-08-06T18:34:02.614Z,2.87
2018-08-06T18:36:30.979Z,2.20
2018-08-06T18:38:59.373Z,1.85
2018-08-06T18:41:27.748Z,2.22
2018-08-06T18:43:56.141Z,3.70
2018-08-06T18:46:24.485Z,2.20
2018-08-06T18:48:52.851Z,2.30
2018-08-06T18:51:21.225Z,53.97
2018-08-06T18:53:49.609Z,9.08
2018-08-06T18:56:17.971Z,4.37
2018-08-06T18:58:46.402Z,2.80
2018-08-06T19:01:14.713Z,2.90
2018-08-06T19:03:43.079Z,2.15
2018-08-06T19:06:11.533Z,15.47
2018-08-06T19:08:39.875Z,24.50
2018-08-06T19:11:08.503Z,31.00
2018-08-06T19:13:42.469Z,20.77
2018-08-06T19:16:10.807Z,9.30
2018-08-06T19:18:44.456Z,2.80
2018-08-06T19:21:12.785Z,2.30
2018-08-06T19:23:41.155Z,2.30
2018-08-06T19:26:15.913Z,2.25
2018-08-06T19:28:44.228Z,2.37
2018-08-06T19:31:18.041Z,3.12
2018-08-06T19:33:46.365Z,3.15
2018-08-06T19:36:14.717Z,3.43
2018-08-06T19:38:43.049Z,2.60
2018-08-06T19:41:11.490Z,11.08
2018-08-06T19:43:40.405Z,15.95
2018-08-06T19:46:09.379Z,4.33
2018-08-06T19:48:37.808Z,4.20
2018-08-06T19:51:06.343Z,22.35
2018-08-06T19:53:34.727Z,23.15
2018-08-06T19:56:08.346Z,19.30
2018-08-06T19:58:37.155Z,91.08
2018-08-06T20:01:05.501Z,45.13
2018-08-06T20:03:33.993Z,64.25
2018-08-06T20:06:02.411Z,51.68
2018-08-06T20:08:30.827Z,30.15
2018-08-06T20:10:59.221Z,15.38
2018-08-06T20:13:27.591Z,52.40
2018-08-06T20:15:56.076Z,20.85
2018-08-06T20:18:24.460Z,41.23
2018-08-06T20:20:52.931Z,36.77
2018-08-06T20:23:21.367Z,34.55
2018-08-06T20:25:50.232Z,12.00
2018-08-06T20:28:18.556Z,5.40
2018-08-06T20:30:46.984Z,5.75
2018-08-06T20:33:15.300Z,8.60
2018-08-06T20:35:43.701Z,13.53
2018-08-06T20:38:12.057Z,10.08
2018-08-06T20:40:40.425Z,3.95
2018-08-06T20:43:08.770Z,3.30
2018-08-06T20:45:37.199Z,3.25
2018-08-06T20:48:05.816Z,4.05
2018-08-06T20:50:34.197Z,4.20
2018-08-06T20:53:02.580Z,3.27
2018-08-06T20:55:30.941Z,3.47
2018-08-06T20:57:59.345Z,3.35
2018-08-06T21:00:27.730Z,2.67
2018-08-06T21:02:56.141Z,2.55
2018-08-06T21:05:24.527Z,2.70
2018-08-06T21:07:52.977Z,2.80
2018-08-06T21:10:21.485Z,2.90
2018-08-06T21:12:50.064Z,3.45
2018-08-06T21:15:18.448Z,3.10
2018-08-06T21:17:46.804Z,3.33
2018-08-06T21:20:16.648Z,3.27
2018-08-06T21:22:46.278Z,3.40
2018-08-06T21:25:14.850Z,3.00
2018-08-06T21:27:44.325Z,3.00
2018-08-06T21:30:17.714Z,3.00
2018-08-06T21:32:48.850Z,2.60
2018-08-06T21:35:18.184Z,2.70
2018-08-06T21:37:47.614Z,3.80
2018-08-06T21:40:16.218Z,4.90
2018-08-06T21:42:44.610Z,2.90
2018-08-06T21:45:12.961Z,2.80
2018-08-06T21:47:41.553Z,2.60
2018-08-06T21:50:10.836Z,2.47
2018-08-06T21:52:39.234Z,2.70
2018-08-06T21:55:07.908Z,2.52
2018-08-06T21:57:36.219Z,2.92
2018-08-06T22:00:09.719Z,2.47
2018-08-06T22:02:38.131Z,2.40
2018-08-06T22:05:07.725Z,2.70
2018-08-06T22:07:36.129Z,2.50
2018-08-06T22:10:04.941Z,2.42
2018-08-06T22:12:33.344Z,2.50
2018-08-06T22:15:01.743Z,2.50
2018-08-06T22:17:30.220Z,2.60
2018-08-06T22:19:58.601Z,2.35
2018-08-06T22:22:26.966Z,2.33
2018-08-06T22:24:55.339Z,2.30
2018-08-06T22:27:23.720Z,2.50
2018-08-06T22:29:52.055Z,2.40
2018-08-06T22:34:21.473Z,3.20
2018-08-06T22:36:49.856Z,3.10
2018-08-06T22:39:18.246Z,2.40
2018-08-06T22:41:46.631Z,2.50
2018-08-06T22:44:14.991Z,3.00
2018-08-06T22:46:43.365Z,2.50
2018-08-06T22:49:11.712Z,2.65
2018-08-06T22:51:40.052Z,2.30
2018-08-06T22:54:08.478Z,2.30
2018-08-06T22:56:36.837Z,2.20
2018-08-06T22:59:05.204Z,2.17
2018-08-06T23:01:33.545Z,2.50
2018-08-06T23:04:01.888Z,2.22
2018-08-06T23:06:30.278Z,2.35
2018-08-06T23:08:58.619Z,4.47
2018-08-06T23:11:27.000Z,3.20
2018-08-06T23:13:55.363Z,2.35
2018-08-06T23:16:23.764Z,2.30
2018-08-06T23:18:52.113Z,2.30
2018-08-06T23:21:20.398Z,2.27
2018-08-06T23:23:48.737Z,2.30
2018-08-06T23:26:17.095Z,2.40
2018-08-06T23:28:45.561Z,2.80
2018-08-06T23:31:13.901Z,2.50
2018-08-06T23:33:42.363Z,2.50
2018-08-06T23:36:10.743Z,2.40
2018-08-06T23:38:39.117Z,2.15
2018-08-06T23:41:07.613Z,2.40
2018-08-06T23:43:35.936Z,2.10
2018-08-06T23:46:04.292Z,2.20
2018-08-06T23:48:32.702Z,2.65
2018-08-06T23:51:01.045Z,2.90
2018-08-06T23:53:29.391Z,2.40
2018-08-06T23:55:57.758Z,2.40
2018-08-06T23:58:26.109Z,2.37
